sensor_id;sensor_type;location;lat;lon;timestamp;temperature;humidity
39875;DHT22;25547;52.530;13.194;2023-04-19T00:00:56;7.50;96.20
39875;DHT22;25547;52.530;13.194;2023-04-19T00:03:22;7.50;96.10
39875;DHT22;25547;52.530;13.194;2023-04-19T00:05:49;7.50;96.00
39875;DHT22;25547;52.530;13.194;2023-04-19T00:08:18;7.50;96.20
39875;DHT22;25547;52.530;13.194;2023-04-19T00:10:43;7.50;95.60
39875;DHT22;25547;52.530;13.194;2023-04-19T00:13:09;7.50;95.40
39875;DHT22;25547;52.530;13.194;2023-04-19T00:15:36;7.50;95.10
39875;DHT22;25547;52.530;13.194;2023-04-19T00:18:04;7.50;94.90
39875;DHT22;25547;52.530;13.194;2023-04-19T00:20:32;7.60;94.80
39875;DHT22;25547;52.530;13.194;2023-04-19T00:22:59;7.60;94.50
39875;DHT22;25547;52.530;13.194;2023-04-19T00:25:26;7.60;94.20
39875;DHT22;25547;52.530;13.194;2023-04-19T00:27:52;7.60;93.80
39875;DHT22;25547;52.530;13.194;2023-04-19T00:30:20;7.60;93.40
39875;DHT22;25547;52.530;13.194;2023-04-19T00:32:46;7.60;93.20
39875;DHT22;25547;52.530;13.194;2023-04-19T00:35:11;7.70;93.10
39875;DHT22;25547;52.530;13.194;2023-04-19T00:37:37;7.60;92.90
39875;DHT22;25547;52.530;13.194;2023-04-19T00:40:05;7.60;92.80
39875;DHT22;25547;52.530;13.194;2023-04-19T00:42:32;7.60;92.80
39875;DHT22;25547;52.530;13.194;2023-04-19T00:44:58;7.50;92.40
39875;DHT22;25547;52.530;13.194;2023-04-19T00:47:24;7.50;92.40
39875;DHT22;25547;52.530;13.194;2023-04-19T00:49:49;7.60;92.50
39875;DHT22;25547;52.530;13.194;2023-04-19T00:52:17;7.50;92.40
39875;DHT22;25547;52.530;13.194;2023-04-19T00:54:44;7.50;92.10
39875;DHT22;25547;52.530;13.194;2023-04-19T00:57:10;7.40;92.20
39875;DHT22;25547;52.530;13.194;2023-04-19T00:59:36;7.40;92.20
39875;DHT22;25547;52.530;13.194;2023-04-19T01:02:03;7.30;92.10
39875;DHT22;25547;52.530;13.194;2023-04-19T01:04:28;7.40;92.30
39875;DHT22;25547;52.530;13.194;2023-04-19T01:06:54;7.40;91.80
39875;DHT22;25547;52.530;13.194;2023-04-19T01:09:20;7.40;91.90
39875;DHT22;25547;52.530;13.194;2023-04-19T01:11:45;7.40;91.60
39875;DHT22;25547;52.530;13.194;2023-04-19T01:14:11;7.40;91.70
39875;DHT22;25547;52.530;13.194;2023-04-19T01:16:37;7.30;91.60
39875;DHT22;25547;52.530;13.194;2023-04-19T01:19:03;7.30;91.70
39875;DHT22;25547;52.530;13.194;2023-04-19T01:21:29;7.20;91.80
39875;DHT22;25547;52.530;13.194;2023-04-19T01:23:55;7.20;91.80
39875;DHT22;25547;52.530;13.194;2023-04-19T01:26:20;7.10;91.80
39875;DHT22;25547;52.530;13.194;2023-04-19T01:28:46;7.10;91.90
39875;DHT22;25547;52.530;13.194;2023-04-19T01:31:12;7.10;92.10
39875;DHT22;25547;52.530;13.194;2023-04-19T01:33:37;7.10;92.10
39875;DHT22;25547;52.530;13.194;2023-04-19T01:36:06;7.10;92.00
39875;DHT22;25547;52.530;13.194;2023-04-19T01:38:32;7.10;92.00
39875;DHT22;25547;52.530;13.194;2023-04-19T01:41:02;7.00;91.90
39875;DHT22;25547;52.530;13.194;2023-04-19T01:43:28;6.90;91.90
39875;DHT22;25547;52.530;13.194;2023-04-19T01:45:54;6.90;92.00
39875;DHT22;25547;52.530;13.194;2023-04-19T01:48:20;6.90;92.10
39875;DHT22;25547;52.530;13.194;2023-04-19T01:50:45;6.90;92.00
39875;DHT22;25547;52.530;13.194;2023-04-19T01:53:13;6.80;91.90
39875;DHT22;25547;52.530;13.194;2023-04-19T01:55:38;6.80;92.10
39875;DHT22;25547;52.530;13.194;2023-04-19T01:58:07;6.80;92.10
39875;DHT22;25547;52.530;13.194;2023-04-19T02:00:37;6.70;92.20
39875;DHT22;25547;52.530;13.194;2023-04-19T02:03:03;6.70;92.40
39875;DHT22;25547;52.530;13.194;2023-04-19T02:05:28;6.60;92.60
39875;DHT22;25547;52.530;13.194;2023-04-19T02:07:54;6.70;92.70
39875;DHT22;25547;52.530;13.194;2023-04-19T02:10:22;6.60;92.90
39875;DHT22;25547;52.530;13.194;2023-04-19T02:12:50;6.50;93.00
39875;DHT22;25547;52.530;13.194;2023-04-19T02:15:16;6.50;93.00
39875;DHT22;25547;52.530;13.194;2023-04-19T02:17:41;6.50;93.20
39875;DHT22;25547;52.530;13.194;2023-04-19T02:20:08;6.40;93.30
39875;DHT22;25547;52.530;13.194;2023-04-19T02:22:33;6.30;93.50
39875;DHT22;25547;52.530;13.194;2023-04-19T02:24:59;6.40;93.60
39875;DHT22;25547;52.530;13.194;2023-04-19T02:27:25;6.40;93.60
39875;DHT22;25547;52.530;13.194;2023-04-19T02:29:51;6.30;93.70
39875;DHT22;25547;52.530;13.194;2023-04-19T02:32:18;6.30;93.80
39875;DHT22;25547;52.530;13.194;2023-04-19T02:34:44;6.20;94.00
39875;DHT22;25547;52.530;13.194;2023-04-19T02:37:10;6.20;94.10
39875;DHT22;25547;52.530;13.194;2023-04-19T02:39:35;6.10;94.30
39875;DHT22;25547;52.530;13.194;2023-04-19T02:42:01;6.20;94.40
39875;DHT22;25547;52.530;13.194;2023-04-19T02:44:27;6.20;94.50
39875;DHT22;25547;52.530;13.194;2023-04-19T02:46:53;6.10;94.70
39875;DHT22;25547;52.530;13.194;2023-04-19T02:49:21;6.10;94.80
39875;DHT22;25547;52.530;13.194;2023-04-19T02:51:47;6.10;95.00
39875;DHT22;25547;52.530;13.194;2023-04-19T02:54:13;6.00;95.10
39875;DHT22;25547;52.530;13.194;2023-04-19T02:56:41;6.00;95.10
39875;DHT22;25547;52.530;13.194;2023-04-19T02:59:08;6.00;95.20
39875;DHT22;25547;52.530;13.194;2023-04-19T03:01:34;6.00;95.30
39875;DHT22;25547;52.530;13.194;2023-04-19T03:04:00;6.00;95.40
39875;DHT22;25547;52.530;13.194;2023-04-19T03:06:25;5.90;95.60
39875;DHT22;25547;52.530;13.194;2023-04-19T03:08:51;5.90;95.90
39875;DHT22;25547;52.530;13.194;2023-04-19T03:11:17;5.90;96.10
39875;DHT22;25547;52.530;13.194;2023-04-19T03:13:43;5.80;96.20
39875;DHT22;25547;52.530;13.194;2023-04-19T03:16:09;5.80;96.30
39875;DHT22;25547;52.530;13.194;2023-04-19T03:18:35;5.80;96.40
39875;DHT22;25547;52.530;13.194;2023-04-19T03:21:03;5.70;96.50
39875;DHT22;25547;52.530;13.194;2023-04-19T03:23:29;5.70;97.30
39875;DHT22;25547;52.530;13.194;2023-04-19T03:25:55;5.70;97.20
39875;DHT22;25547;52.530;13.194;2023-04-19T03:28:23;5.70;97.40
39875;DHT22;25547;52.530;13.194;2023-04-19T03:30:48;5.60;97.50
39875;DHT22;25547;52.530;13.194;2023-04-19T03:33:14;5.60;97.60
39875;DHT22;25547;52.530;13.194;2023-04-19T03:35:39;5.60;97.90
39875;DHT22;25547;52.530;13.194;2023-04-19T03:38:05;5.60;98.10
39875;DHT22;25547;52.530;13.194;2023-04-19T03:40:36;5.60;98.10
39875;DHT22;25547;52.530;13.194;2023-04-19T03:43:02;5.60;98.10
39875;DHT22;25547;52.530;13.194;2023-04-19T03:45:28;5.50;98.40
39875;DHT22;25547;52.530;13.194;2023-04-19T03:47:56;5.60;98.60
39875;DHT22;25547;52.530;13.194;2023-04-19T03:50:24;5.50;98.80
39875;DHT22;25547;52.530;13.194;2023-04-19T03:52:50;5.50;99.10
39875;DHT22;25547;52.530;13.194;2023-04-19T03:55:16;5.40;99.20
39875;DHT22;25547;52.530;13.194;2023-04-19T03:57:41;5.30;99.40
39875;DHT22;25547;52.530;13.194;2023-04-19T04:00:07;5.40;99.80
39875;DHT22;25547;52.530;13.194;2023-04-19T04:02:37;5.50;99.90
39875;DHT22;25547;52.530;13.194;2023-04-19T04:05:05;5.30;99.90
39875;DHT22;25547;52.530;13.194;2023-04-19T04:07:33;5.30;99.90
39875;DHT22;25547;52.530;13.194;2023-04-19T04:09:59;5.30;99.90
39875;DHT22;25547;52.530;13.194;2023-04-19T04:12:24;5.20;99.90
39875;DHT22;25547;52.530;13.194;2023-04-19T04:14:53;5.30;99.90
39875;DHT22;25547;52.530;13.194;2023-04-19T04:17:18;5.30;99.90
39875;DHT22;25547;52.530;13.194;2023-04-19T04:19:44;5.20;99.90
39875;DHT22;25547;52.530;13.194;2023-04-19T04:22:12;5.30;99.90
39875;DHT22;25547;52.530;13.194;2023-04-19T04:24:42;5.20;99.90
39875;DHT22;25547;52.530;13.194;2023-04-19T04:27:09;5.10;99.90
39875;DHT22;25547;52.530;13.194;2023-04-19T04:29:38;5.10;99.90
39875;DHT22;25547;52.530;13.194;2023-04-19T04:32:06;5.10;99.90
39875;DHT22;25547;52.530;13.194;2023-04-19T04:34:35;5.10;99.90
39875;DHT22;25547;52.530;13.194;2023-04-19T04:37:01;5.10;99.90
39875;DHT22;25547;52.530;13.194;2023-04-19T04:39:28;5.10;99.90
39875;DHT22;25547;52.530;13.194;2023-04-19T04:41:54;5.10;99.90
39875;DHT22;25547;52.530;13.194;2023-04-19T04:44:24;5.00;99.90
39875;DHT22;25547;52.530;13.194;2023-04-19T04:46:49;5.00;99.90
39875;DHT22;25547;52.530;13.194;2023-04-19T04:49:15;5.00;99.90
39875;DHT22;25547;52.530;13.194;2023-04-19T04:51:40;5.10;99.90
39875;DHT22;25547;52.530;13.194;2023-04-19T04:54:06;5.10;99.90
39875;DHT22;25547;52.530;13.194;2023-04-19T04:56:32;5.10;99.90
39875;DHT22;25547;52.530;13.194;2023-04-19T04:58:57;5.00;99.90
39875;DHT22;25547;52.530;13.194;2023-04-19T05:01:26;5.10;99.90
39875;DHT22;25547;52.530;13.194;2023-04-19T05:03:51;5.10;99.90
39875;DHT22;25547;52.530;13.194;2023-04-19T05:06:19;5.10;99.90
39875;DHT22;25547;52.530;13.194;2023-04-19T05:08:45;5.10;99.90
39875;DHT22;25547;52.530;13.194;2023-04-19T05:11:11;5.20;99.90
39875;DHT22;25547;52.530;13.194;2023-04-19T05:13:36;5.20;99.90
39875;DHT22;25547;52.530;13.194;2023-04-19T05:16:02;5.30;99.90
39875;DHT22;25547;52.530;13.194;2023-04-19T05:18:30;5.30;99.90
39875;DHT22;25547;52.530;13.194;2023-04-19T05:20:56;5.20;99.90
39875;DHT22;25547;52.530;13.194;2023-04-19T05:23:22;5.30;99.90
39875;DHT22;25547;52.530;13.194;2023-04-19T05:25:48;5.50;99.90
39875;DHT22;25547;52.530;13.194;2023-04-19T05:28:13;5.60;99.90
39875;DHT22;25547;52.530;13.194;2023-04-19T05:30:39;5.60;99.90
39875;DHT22;25547;52.530;13.194;2023-04-19T05:33:05;5.60;99.90
39875;DHT22;25547;52.530;13.194;2023-04-19T05:35:30;5.70;99.90
39875;DHT22;25547;52.530;13.194;2023-04-19T05:37:56;5.80;99.90
39875;DHT22;25547;52.530;13.194;2023-04-19T05:40:24;5.80;99.90
39875;DHT22;25547;52.530;13.194;2023-04-19T05:42:52;5.90;99.90
39875;DHT22;25547;52.530;13.194;2023-04-19T05:45:18;6.00;99.90
39875;DHT22;25547;52.530;13.194;2023-04-19T05:47:44;6.00;99.90
39875;DHT22;25547;52.530;13.194;2023-04-19T05:50:11;6.00;99.90
39875;DHT22;25547;52.530;13.194;2023-04-19T05:52:39;6.00;99.90
39875;DHT22;25547;52.530;13.194;2023-04-19T05:55:05;6.10;99.90
39875;DHT22;25547;52.530;13.194;2023-04-19T05:57:31;6.10;99.90
39875;DHT22;25547;52.530;13.194;2023-04-19T05:59:59;6.10;99.90
39875;DHT22;25547;52.530;13.194;2023-04-19T06:02:26;6.20;99.90
39875;DHT22;25547;52.530;13.194;2023-04-19T06:04:51;6.20;99.90
39875;DHT22;25547;52.530;13.194;2023-04-19T06:07:17;6.30;99.90
39875;DHT22;25547;52.530;13.194;2023-04-19T06:09:43;6.40;99.90
39875;DHT22;25547;52.530;13.194;2023-04-19T06:12:11;6.50;99.90
39875;DHT22;25547;52.530;13.194;2023-04-19T06:14:37;6.50;99.90
39875;DHT22;25547;52.530;13.194;2023-04-19T06:17:02;6.60;99.90
39875;DHT22;25547;52.530;13.194;2023-04-19T06:19:28;6.70;99.90
39875;DHT22;25547;52.530;13.194;2023-04-19T06:21:54;6.80;99.90
39875;DHT22;25547;52.530;13.194;2023-04-19T06:24:22;6.80;99.90
39875;DHT22;25547;52.530;13.194;2023-04-19T06:26:47;6.90;99.90
39875;DHT22;25547;52.530;13.194;2023-04-19T06:29:14;6.90;99.90
39875;DHT22;25547;52.530;13.194;2023-04-19T06:31:39;6.90;99.90
39875;DHT22;25547;52.530;13.194;2023-04-19T06:34:08;6.90;99.90
39875;DHT22;25547;52.530;13.194;2023-04-19T06:36:35;7.00;99.90
39875;DHT22;25547;52.530;13.194;2023-04-19T06:39:00;7.00;99.90
39875;DHT22;25547;52.530;13.194;2023-04-19T06:41:28;7.10;99.90
39875;DHT22;25547;52.530;13.194;2023-04-19T06:43:59;7.20;99.90
39875;DHT22;25547;52.530;13.194;2023-04-19T06:46:27;7.20;99.90
39875;DHT22;25547;52.530;13.194;2023-04-19T06:48:53;7.40;99.70
39875;DHT22;25547;52.530;13.194;2023-04-19T06:51:18;7.50;99.40
39875;DHT22;25547;52.530;13.194;2023-04-19T06:53:44;7.60;99.10
39875;DHT22;25547;52.530;13.194;2023-04-19T06:56:12;7.60;98.70
39875;DHT22;25547;52.530;13.194;2023-04-19T06:58:40;7.80;98.70
39875;DHT22;25547;52.530;13.194;2023-04-19T07:01:06;7.90;98.50
39875;DHT22;25547;52.530;13.194;2023-04-19T07:03:32;7.90;97.30
39875;DHT22;25547;52.530;13.194;2023-04-19T07:05:57;8.00;97.30
39875;DHT22;25547;52.530;13.194;2023-04-19T07:08:24;8.20;97.50
39875;DHT22;25547;52.530;13.194;2023-04-19T07:10:52;8.30;96.90
39875;DHT22;25547;52.530;13.194;2023-04-19T07:13:18;8.50;96.30
39875;DHT22;25547;52.530;13.194;2023-04-19T07:15:43;9.00;95.80
39875;DHT22;25547;52.530;13.194;2023-04-19T07:18:12;12.50;91.10
39875;DHT22;25547;52.530;13.194;2023-04-19T07:20:40;14.20;82.20
39875;DHT22;25547;52.530;13.194;2023-04-19T07:23:09;13.70;77.30
39875;DHT22;25547;52.530;13.194;2023-04-19T07:25:35;12.60;81.20
39875;DHT22;25547;52.530;13.194;2023-04-19T07:28:01;12.00;82.50
39875;DHT22;25547;52.530;13.194;2023-04-19T07:30:27;11.10;84.30
39875;DHT22;25547;52.530;13.194;2023-04-19T07:32:52;10.50;87.30
39875;DHT22;25547;52.530;13.194;2023-04-19T07:35:18;9.90;88.30
39875;DHT22;25547;52.530;13.194;2023-04-19T07:37:44;9.60;89.60
39875;DHT22;25547;52.530;13.194;2023-04-19T07:40:10;9.60;90.00
39875;DHT22;25547;52.530;13.194;2023-04-19T07:42:36;9.60;90.10
39875;DHT22;25547;52.530;13.194;2023-04-19T07:45:04;9.70;90.30
39875;DHT22;25547;52.530;13.194;2023-04-19T07:47:30;10.30;89.00
39875;DHT22;25547;52.530;13.194;2023-04-19T07:49:55;12.60;83.00
39875;DHT22;25547;52.530;13.194;2023-04-19T07:55:07;18.90;58.30
39875;DHT22;25547;52.530;13.194;2023-04-19T07:57:34;21.70;50.10
39875;DHT22;25547;52.530;13.194;2023-04-19T08:00:02;23.40;46.00
39875;DHT22;25547;52.530;13.194;2023-04-19T08:02:30;23.20;44.00
39875;DHT22;25547;52.530;13.194;2023-04-19T08:04:56;24.60;40.50
39875;DHT22;25547;52.530;13.194;2023-04-19T08:07:22;25.00;38.90
39875;DHT22;25547;52.530;13.194;2023-04-19T08:09:52;23.20;38.70
39875;DHT22;25547;52.530;13.194;2023-04-19T08:12:18;23.80;37.80
39875;DHT22;25547;52.530;13.194;2023-04-19T08:14:43;23.80;37.30
39875;DHT22;25547;52.530;13.194;2023-04-19T08:17:09;22.50;37.90
39875;DHT22;25547;52.530;13.194;2023-04-19T08:19:34;23.80;37.00
39875;DHT22;25547;52.530;13.194;2023-04-19T08:22:01;24.30;35.60
39875;DHT22;25547;52.530;13.194;2023-04-19T08:24:28;24.20;36.30
39875;DHT22;25547;52.530;13.194;2023-04-19T08:26:55;24.80;35.30
39875;DHT22;25547;52.530;13.194;2023-04-19T08:29:22;25.70;34.70
39875;DHT22;25547;52.530;13.194;2023-04-19T08:31:50;25.30;34.00
39875;DHT22;25547;52.530;13.194;2023-04-19T08:34:15;25.70;33.70
39875;DHT22;25547;52.530;13.194;2023-04-19T08:36:42;25.40;33.40
39875;DHT22;25547;52.530;13.194;2023-04-19T08:39:07;23.80;33.80
39875;DHT22;25547;52.530;13.194;2023-04-19T08:41:33;24.40;35.40
39875;DHT22;25547;52.530;13.194;2023-04-19T08:44:00;22.70;35.50
39875;DHT22;25547;52.530;13.194;2023-04-19T08:46:26;22.90;37.20
39875;DHT22;25547;52.530;13.194;2023-04-19T08:48:53;22.50;37.00
39875;DHT22;25547;52.530;13.194;2023-04-19T08:51:22;21.20;38.90
39875;DHT22;25547;52.530;13.194;2023-04-19T08:53:48;21.10;38.50
39875;DHT22;25547;52.530;13.194;2023-04-19T08:56:17;19.80;40.80
39875;DHT22;25547;52.530;13.194;2023-04-19T08:58:43;18.30;44.20
39875;DHT22;25547;52.530;13.194;2023-04-19T09:01:10;17.40;46.80
39875;DHT22;25547;52.530;13.194;2023-04-19T09:03:44;16.00;48.20
39875;DHT22;25547;52.530;13.194;2023-04-19T09:06:15;15.60;50.20
39875;DHT22;25547;52.530;13.194;2023-04-19T09:08:41;14.90;51.80
39875;DHT22;25547;52.530;13.194;2023-04-19T09:11:07;15.00;51.80
39875;DHT22;25547;52.530;13.194;2023-04-19T09:13:33;14.90;52.20
39875;DHT22;25547;52.530;13.194;2023-04-19T09:16:01;14.80;52.40
39875;DHT22;25547;52.530;13.194;2023-04-19T09:18:29;14.20;52.90
39875;DHT22;25547;52.530;13.194;2023-04-19T09:20:55;13.80;54.20
39875;DHT22;25547;52.530;13.194;2023-04-19T09:23:26;13.40;55.00
39875;DHT22;25547;52.530;13.194;2023-04-19T09:28:22;12.80;57.80
39875;DHT22;25547;52.530;13.194;2023-04-19T09:30:50;12.80;58.20
39875;DHT22;25547;52.530;13.194;2023-04-19T09:33:36;12.90;58.30
39875;DHT22;25547;52.530;13.194;2023-04-19T09:36:10;13.00;56.40
39875;DHT22;25547;52.530;13.194;2023-04-19T09:38:48;13.00;55.70
39875;DHT22;25547;52.530;13.194;2023-04-19T09:41:19;13.00;55.50
39875;DHT22;25547;52.530;13.194;2023-04-19T09:43:45;13.30;55.40
39875;DHT22;25547;52.530;13.194;2023-04-19T09:46:33;13.30;55.30
39875;DHT22;25547;52.530;13.194;2023-04-19T09:49:18;13.30;54.60
39875;DHT22;25547;52.530;13.194;2023-04-19T09:51:52;13.00;54.80
39875;DHT22;25547;52.530;13.194;2023-04-19T09:54:23;12.60;55.70
39875;DHT22;25547;52.530;13.194;2023-04-19T09:56:50;12.50;55.50
39875;DHT22;25547;52.530;13.194;2023-04-19T09:59:17;12.30;56.50
39875;DHT22;25547;52.530;13.194;2023-04-19T10:01:45;12.40;56.90
39875;DHT22;25547;52.530;13.194;2023-04-19T10:04:13;12.20;57.10
39875;DHT22;25547;52.530;13.194;2023-04-19T10:06:50;12.30;57.10
39875;DHT22;25547;52.530;13.194;2023-04-19T10:09:22;12.30;57.00
39875;DHT22;25547;52.530;13.194;2023-04-19T10:11:52;12.20;57.00
39875;DHT22;25547;52.530;13.194;2023-04-19T10:14:23;12.20;57.40
39875;DHT22;25547;52.530;13.194;2023-04-19T10:16:52;12.30;57.40
39875;DHT22;25547;52.530;13.194;2023-04-19T10:19:19;12.60;58.00
39875;DHT22;25547;52.530;13.194;2023-04-19T10:21:47;12.70;56.40
39875;DHT22;25547;52.530;13.194;2023-04-19T10:24:18;12.80;56.00
39875;DHT22;25547;52.530;13.194;2023-04-19T10:27:10;12.80;56.00
39875;DHT22;25547;52.530;13.194;2023-04-19T10:29:58;13.10;56.00
39875;DHT22;25547;52.530;13.194;2023-04-19T10:32:38;13.00;56.10
39875;DHT22;25547;52.530;13.194;2023-04-19T10:35:16;12.80;55.80
39875;DHT22;25547;52.530;13.194;2023-04-19T10:43:17;12.50;56.40
39875;DHT22;25547;52.530;13.194;2023-04-19T10:45:43;12.50;56.70
39875;DHT22;25547;52.530;13.194;2023-04-19T11:06:59;13.00;57.30
39875;DHT22;25547;52.530;13.194;2023-04-19T11:09:38;13.10;57.10
39875;DHT22;25547;52.530;13.194;2023-04-19T11:12:14;13.10;56.80
39875;DHT22;25547;52.530;13.194;2023-04-19T11:14:41;13.20;57.00
39875;DHT22;25547;52.530;13.194;2023-04-19T11:17:25;13.10;57.30
39875;DHT22;25547;52.530;13.194;2023-04-19T11:19:54;13.20;56.60
39875;DHT22;25547;52.530;13.194;2023-04-19T11:27:40;13.20;57.70
39875;DHT22;25547;52.530;13.194;2023-04-19T11:30:11;13.30;58.30
39875;DHT22;25547;52.530;13.194;2023-04-19T11:32:46;13.50;57.90
39875;DHT22;25547;52.530;13.194;2023-04-19T11:35:13;13.40;57.00
39875;DHT22;25547;52.530;13.194;2023-04-19T11:37:41;13.40;57.40
39875;DHT22;25547;52.530;13.194;2023-04-19T11:40:07;13.30;56.80
39875;DHT22;25547;52.530;13.194;2023-04-19T11:42:33;13.30;56.90
39875;DHT22;25547;52.530;13.194;2023-04-19T11:44:59;13.30;57.20
39875;DHT22;25547;52.530;13.194;2023-04-19T11:47:27;13.20;55.80
39875;DHT22;25547;52.530;13.194;2023-04-19T11:50:28;13.10;55.70
39875;DHT22;25547;52.530;13.194;2023-04-19T11:52:48;13.20;55.80
39875;DHT22;25547;52.530;13.194;2023-04-19T11:55:20;13.30;55.90
39875;DHT22;25547;52.530;13.194;2023-04-19T11:57:49;13.30;55.50
39875;DHT22;25547;52.530;13.194;2023-04-19T12:00:26;13.10;56.20
39875;DHT22;25547;52.530;13.194;2023-04-19T12:02:52;13.20;56.90
39875;DHT22;25547;52.530;13.194;2023-04-19T12:05:18;13.10;57.00
39875;DHT22;25547;52.530;13.194;2023-04-19T12:08:04;13.20;56.60
39875;DHT22;25547;52.530;13.194;2023-04-19T12:10:35;13.20;56.00
39875;DHT22;25547;52.530;13.194;2023-04-19T12:13:15;13.20;56.30
39875;DHT22;25547;52.530;13.194;2023-04-19T12:15:42;13.20;56.60
39875;DHT22;25547;52.530;13.194;2023-04-19T12:18:08;13.20;56.60
39875;DHT22;25547;52.530;13.194;2023-04-19T12:20:36;13.30;56.80
39875;DHT22;25547;52.530;13.194;2023-04-19T12:23:02;13.40;57.00
39875;DHT22;25547;52.530;13.194;2023-04-19T12:25:32;13.20;56.60
39875;DHT22;25547;52.530;13.194;2023-04-19T12:28:02;13.30;56.50
39875;DHT22;25547;52.530;13.194;2023-04-19T12:30:28;13.30;56.00
39875;DHT22;25547;52.530;13.194;2023-04-19T12:32:57;13.30;55.90
39875;DHT22;25547;52.530;13.194;2023-04-19T12:35:24;13.30;56.50
39875;DHT22;25547;52.530;13.194;2023-04-19T12:37:52;13.30;57.00
39875;DHT22;25547;52.530;13.194;2023-04-19T12:40:18;13.10;56.50
39875;DHT22;25547;52.530;13.194;2023-04-19T12:42:47;13.00;57.10
39875;DHT22;25547;52.530;13.194;2023-04-19T12:45:13;12.90;57.20
39875;DHT22;25547;52.530;13.194;2023-04-19T12:47:40;12.90;57.00
39875;DHT22;25547;52.530;13.194;2023-04-19T12:50:06;12.70;56.90
39875;DHT22;25547;52.530;13.194;2023-04-19T12:52:33;12.70;56.70
39875;DHT22;25547;52.530;13.194;2023-04-19T12:55:01;12.60;57.50
39875;DHT22;25547;52.530;13.194;2023-04-19T12:57:27;12.50;58.00
39875;DHT22;25547;52.530;13.194;2023-04-19T12:59:53;12.40;57.20
39875;DHT22;25547;52.530;13.194;2023-04-19T13:02:18;12.50;57.10
39875;DHT22;25547;52.530;13.194;2023-04-19T13:04:44;12.60;57.40
39875;DHT22;25547;52.530;13.194;2023-04-19T13:07:12;12.60;58.00
39875;DHT22;25547;52.530;13.194;2023-04-19T13:09:38;12.50;58.00
39875;DHT22;25547;52.530;13.194;2023-04-19T13:12:09;12.50;58.00
39875;DHT22;25547;52.530;13.194;2023-04-19T13:14:35;12.60;57.40
39875;DHT22;25547;52.530;13.194;2023-04-19T13:17:00;12.80;57.00
39875;DHT22;25547;52.530;13.194;2023-04-19T13:19:28;13.20;56.40
39875;DHT22;25547;52.530;13.194;2023-04-19T13:21:56;13.10;54.50
39875;DHT22;25547;52.530;13.194;2023-04-19T13:24:22;13.30;54.40
39875;DHT22;25547;52.530;13.194;2023-04-19T13:26:48;13.40;53.20
39875;DHT22;25547;52.530;13.194;2023-04-19T13:29:16;13.30;52.10
39875;DHT22;25547;52.530;13.194;2023-04-19T13:31:41;13.20;52.10
39875;DHT22;25547;52.530;13.194;2023-04-19T13:34:07;13.40;52.50
39875;DHT22;25547;52.530;13.194;2023-04-19T13:36:35;13.40;52.50
39875;DHT22;25547;52.530;13.194;2023-04-19T13:39:02;13.30;53.50
39875;DHT22;25547;52.530;13.194;2023-04-19T13:41:28;13.40;53.10
39875;DHT22;25547;52.530;13.194;2023-04-19T13:43:54;13.30;53.00
39875;DHT22;25547;52.530;13.194;2023-04-19T13:46:22;13.40;53.10
39875;DHT22;25547;52.530;13.194;2023-04-19T13:48:50;13.30;53.30
39875;DHT22;25547;52.530;13.194;2023-04-19T13:51:18;13.30;53.90
39875;DHT22;25547;52.530;13.194;2023-04-19T13:53:48;13.40;54.70
39875;DHT22;25547;52.530;13.194;2023-04-19T13:56:13;13.40;53.20
39875;DHT22;25547;52.530;13.194;2023-04-19T13:58:39;13.30;53.40
39875;DHT22;25547;52.530;13.194;2023-04-19T14:01:07;13.00;53.10
39875;DHT22;25547;52.530;13.194;2023-04-19T14:03:33;12.90;53.60
39875;DHT22;25547;52.530;13.194;2023-04-19T14:05:58;12.80;53.90
39875;DHT22;25547;52.530;13.194;2023-04-19T14:08:24;12.90;54.20
39875;DHT22;25547;52.530;13.194;2023-04-19T14:10:50;12.80;55.00
39875;DHT22;25547;52.530;13.194;2023-04-19T14:13:15;12.80;55.20
39875;DHT22;25547;52.530;13.194;2023-04-19T14:15:43;12.70;55.10
39875;DHT22;25547;52.530;13.194;2023-04-19T14:18:12;12.70;55.70
39875;DHT22;25547;52.530;13.194;2023-04-19T14:20:40;12.50;55.90
39875;DHT22;25547;52.530;13.194;2023-04-19T14:23:08;12.50;56.20
39875;DHT22;25547;52.530;13.194;2023-04-19T14:25:34;12.70;56.60
39875;DHT22;25547;52.530;13.194;2023-04-19T14:28:01;12.80;57.20
39875;DHT22;25547;52.530;13.194;2023-04-19T14:30:29;12.70;56.90
39875;DHT22;25547;52.530;13.194;2023-04-19T14:32:55;12.50;56.60
39875;DHT22;25547;52.530;13.194;2023-04-19T14:35:23;12.60;56.40
39875;DHT22;25547;52.530;13.194;2023-04-19T14:37:48;12.60;56.60
39875;DHT22;25547;52.530;13.194;2023-04-19T14:40:16;12.60;56.50
39875;DHT22;25547;52.530;13.194;2023-04-19T14:42:42;12.60;57.10
39875;DHT22;25547;52.530;13.194;2023-04-19T14:45:10;12.40;57.40
39875;DHT22;25547;52.530;13.194;2023-04-19T14:47:39;12.20;58.10
39875;DHT22;25547;52.530;13.194;2023-04-19T14:50:07;12.10;58.60
39875;DHT22;25547;52.530;13.194;2023-04-19T14:52:34;12.00;58.80
39875;DHT22;25547;52.530;13.194;2023-04-19T14:54:59;12.00;59.20
39875;DHT22;25547;52.530;13.194;2023-04-19T14:57:28;11.90;59.80
39875;DHT22;25547;52.530;13.194;2023-04-19T14:59:54;11.80;59.70
39875;DHT22;25547;52.530;13.194;2023-04-19T15:02:25;11.70;60.90
39875;DHT22;25547;52.530;13.194;2023-04-19T15:04:51;11.50;61.80
39875;DHT22;25547;52.530;13.194;2023-04-19T15:07:17;11.50;62.00
39875;DHT22;25547;52.530;13.194;2023-04-19T15:09:45;11.40;63.30
39875;DHT22;25547;52.530;13.194;2023-04-19T15:12:11;11.40;63.60
39875;DHT22;25547;52.530;13.194;2023-04-19T15:14:39;11.20;66.20
39875;DHT22;25547;52.530;13.194;2023-04-19T15:17:05;10.90;70.20
39875;DHT22;25547;52.530;13.194;2023-04-19T15:19:31;10.80;73.00
39875;DHT22;25547;52.530;13.194;2023-04-19T15:21:56;10.50;74.90
39875;DHT22;25547;52.530;13.194;2023-04-19T15:24:22;10.40;78.00
39875;DHT22;25547;52.530;13.194;2023-04-19T15:26:48;10.10;82.70
39875;DHT22;25547;52.530;13.194;2023-04-19T15:29:16;9.60;88.00
39875;DHT22;25547;52.530;13.194;2023-04-19T15:31:42;9.10;92.00
39875;DHT22;25547;52.530;13.194;2023-04-19T15:34:10;8.80;95.50
39875;DHT22;25547;52.530;13.194;2023-04-19T15:36:38;8.50;99.10
39875;DHT22;25547;52.530;13.194;2023-04-19T15:39:08;8.50;99.90
39875;DHT22;25547;52.530;13.194;2023-04-19T15:41:34;8.30;99.90
39875;DHT22;25547;52.530;13.194;2023-04-19T15:44:00;8.10;99.90
39875;DHT22;25547;52.530;13.194;2023-04-19T15:46:25;8.00;99.90
39875;DHT22;25547;52.530;13.194;2023-04-19T15:48:55;8.00;99.90
39875;DHT22;25547;52.530;13.194;2023-04-19T15:51:21;7.90;99.90
39875;DHT22;25547;52.530;13.194;2023-04-19T15:53:52;8.10;99.90
39875;DHT22;25547;52.530;13.194;2023-04-19T15:56:17;8.20;99.90
39875;DHT22;25547;52.530;13.194;2023-04-19T15:58:43;8.20;99.90
39875;DHT22;25547;52.530;13.194;2023-04-19T16:01:12;7.90;99.90